createdAt,value
2023-05-08T00:03:57.236Z,12.03
2023-05-08T00:08:02.154Z,11.98
2023-05-08T00:12:04.782Z,11.93
2023-05-08T00:16:09.455Z,11.88
2023-05-08T00:20:12.515Z,11.92
2023-05-08T00:24:14.831Z,11.91
2023-05-08T00:28:16.924Z,12.01
2023-05-08T00:32:19.044Z,12.11
2023-05-08T00:36:21.181Z,12.25
2023-05-08T00:40:23.248Z,12.31
2023-05-08T00:44:25.283Z,12.40
2023-05-08T00:48:33.929Z,12.43
2023-05-08T00:52:36.312Z,12.31
2023-05-08T00:56:38.690Z,12.37
2023-05-08T01:00:42.307Z,12.30
2023-05-08T01:04:46.141Z,12.27
2023-05-08T01:08:48.150Z,12.15
2023-05-08T01:13:09.158Z,12.10
2023-05-08T01:17:39.163Z,12.04
2023-05-08T01:22:20.081Z,11.98
2023-05-08T01:26:46.422Z,11.90
2023-05-08T01:30:59.485Z,11.80
2023-05-08T01:35:10.744Z,11.69
2023-05-08T01:39:43.921Z,11.51
2023-05-08T01:43:53.048Z,11.43
2023-05-08T01:48:08.689Z,11.39
2023-05-08T01:52:18.765Z,11.39
2023-05-08T01:56:23.978Z,11.43
2023-05-08T02:00:28.531Z,11.45
2023-05-08T02:04:31.767Z,11.60
2023-05-08T02:08:36.192Z,11.60
2023-05-08T02:12:41.509Z,11.47
2023-05-08T02:16:45.034Z,11.40
2023-05-08T02:20:50.455Z,11.28
2023-05-08T02:24:55.605Z,11.25
2023-05-08T02:28:58.644Z,11.14
2023-05-08T02:33:01.392Z,11.09
2023-05-08T02:37:04.537Z,11.10
2023-05-08T02:41:09.054Z,11.12
2023-05-08T02:45:12.260Z,11.29
2023-05-08T02:49:31.287Z,11.41
2023-05-08T02:53:37.532Z,11.44
2023-05-08T02:57:46.728Z,11.45
2023-05-08T03:02:03.741Z,11.40
2023-05-08T03:06:11.977Z,11.37
2023-05-08T03:10:16.524Z,11.33
2023-05-08T03:14:22.665Z,11.29
2023-05-08T03:18:36.165Z,11.19
2023-05-08T03:22:42.814Z,11.09
2023-05-08T03:26:45.880Z,10.93
2023-05-08T03:30:50.914Z,10.85
2023-05-08T03:34:55.536Z,10.86
2023-05-08T03:38:59.331Z,10.74
2023-05-08T03:43:01.808Z,10.74
2023-05-08T03:47:05.003Z,10.82
2023-05-08T03:51:07.341Z,10.86
2023-05-08T03:55:12.329Z,10.84
2023-05-08T03:59:24.087Z,10.95
2023-05-08T04:04:09.314Z,10.99
2023-05-08T04:08:21.484Z,10.87
2023-05-08T04:12:36.501Z,10.73
2023-05-08T04:16:42.247Z,10.59
2023-05-08T04:20:48.224Z,10.48
2023-05-08T04:24:54.780Z,10.44
2023-05-08T04:28:57.440Z,10.32
2023-05-08T04:33:02.569Z,10.24
2023-05-08T04:37:07.366Z,10.10
2023-05-08T04:41:10.109Z,10.07
2023-05-08T04:45:12.962Z,10.10
2023-05-08T04:49:16.119Z,10.12
2023-05-08T04:53:18.387Z,10.23
2023-05-08T04:57:20.753Z,10.29
2023-05-08T05:01:23.313Z,10.28
2023-05-08T05:05:25.565Z,10.20
2023-05-08T05:09:27.823Z,10.17
2023-05-08T05:13:30.058Z,10.11
2023-05-08T05:17:33.274Z,10.12
2023-05-08T05:21:37.901Z,10.21
2023-05-08T05:25:40.341Z,10.38
2023-05-08T05:29:42.554Z,10.47
2023-05-08T05:33:45.668Z,10.32
2023-05-08T05:37:47.801Z,10.34
2023-05-08T05:41:50.008Z,10.38
2023-05-08T05:45:52.166Z,10.47
2023-05-08T05:49:54.882Z,10.48
2023-05-08T05:53:57.194Z,10.59
2023-05-08T05:58:00.481Z,10.61
2023-05-08T06:02:03.403Z,10.47
2023-05-08T06:06:05.661Z,10.49
2023-05-08T06:10:08.184Z,10.64
2023-05-08T06:14:10.997Z,10.77
2023-05-08T06:18:14.122Z,10.70
2023-05-08T06:22:18.225Z,10.82
2023-05-08T06:26:23.252Z,11.03
2023-05-08T06:30:25.487Z,11.23
2023-05-08T06:34:27.525Z,11.29
2023-05-08T06:38:29.524Z,11.21
2023-05-08T06:42:31.508Z,11.16
2023-05-08T06:46:33.624Z,11.04
2023-05-08T06:50:39.457Z,10.91
2023-05-08T06:54:42.006Z,10.80
2023-05-08T06:58:48.328Z,10.71
2023-05-08T07:02:58.996Z,10.71
2023-05-08T07:07:01.064Z,10.75
2023-05-08T07:11:03.853Z,10.79
2023-05-08T07:15:17.929Z,10.72
2023-05-08T07:19:27.061Z,10.72
2023-05-08T07:23:29.170Z,10.82
2023-05-08T07:27:31.366Z,11.08
2023-05-08T07:31:33.473Z,11.17
2023-05-08T07:35:37.600Z,11.41
2023-05-08T07:39:39.579Z,11.50
2023-05-08T07:43:43.524Z,11.45
2023-05-08T07:47:53.275Z,11.49
2023-05-08T07:51:55.419Z,11.57
2023-05-08T07:55:57.441Z,11.51
2023-05-08T08:00:02.143Z,11.56
2023-05-08T08:04:15.609Z,11.62
2023-05-08T08:08:17.753Z,11.51
2023-05-08T08:12:20.917Z,11.53
2023-05-08T08:16:23.245Z,11.73
2023-05-08T08:20:25.278Z,12.04
2023-05-08T08:24:29.183Z,12.35
2023-05-08T08:28:31.830Z,12.53
2023-05-08T08:32:33.850Z,12.61
2023-05-08T08:36:35.901Z,12.49
2023-05-08T08:40:41.805Z,12.41
2023-05-08T08:44:43.887Z,12.53
2023-05-08T08:48:47.221Z,12.34
2023-05-08T08:52:57.765Z,12.30
2023-05-08T08:57:04.750Z,12.09
2023-05-08T09:01:08.037Z,12.00
2023-05-08T09:05:11.334Z,12.22
2023-05-08T09:09:13.700Z,12.30
2023-05-08T09:13:17.340Z,12.37
2023-05-08T09:17:21.711Z,12.40
2023-05-08T09:21:24.204Z,12.55
2023-05-08T09:25:26.427Z,12.56
2023-05-08T09:29:28.472Z,12.59
2023-05-08T09:33:30.743Z,12.78
2023-05-08T09:37:33.861Z,12.82
2023-05-08T09:41:35.875Z,12.88
2023-05-08T09:45:39.877Z,12.95
2023-05-08T09:50:01.268Z,12.87
2023-05-08T09:54:06.442Z,12.85
2023-05-08T09:58:08.764Z,12.62
2023-05-08T10:02:12.263Z,12.73
2023-05-08T10:06:15.494Z,12.77
2023-05-08T10:10:26.089Z,12.84
2023-05-08T10:14:28.154Z,13.09
2023-05-08T10:18:35.241Z,13.27
2023-05-08T10:22:38.092Z,13.51
2023-05-08T10:26:53.667Z,13.78
2023-05-08T10:31:07.968Z,13.66
2023-05-08T10:35:11.702Z,13.78
2023-05-08T10:39:17.929Z,13.91
2023-05-08T10:43:20.839Z,13.99
2023-05-08T10:47:33.300Z,14.38
2023-05-08T10:52:37.001Z,14.79
2023-05-08T10:56:39.414Z,15.12
2023-05-08T11:00:53.836Z,15.50
2023-05-08T11:05:15.735Z,15.82
2023-05-08T11:09:28.876Z,16.24
2023-05-08T11:13:34.814Z,16.63
2023-05-08T11:17:39.225Z,16.80
2023-05-08T11:22:16.187Z,16.62
2023-05-08T11:26:18.260Z,16.50
2023-05-08T11:30:23.166Z,16.56
2023-05-08T11:34:43.898Z,16.95
2023-05-08T11:39:07.743Z,17.21
2023-05-08T11:43:24.261Z,17.32
2023-05-08T11:47:36.851Z,17.04
2023-05-08T11:51:39.058Z,17.01
2023-05-08T11:55:41.536Z,17.01
2023-05-08T11:59:43.753Z,16.93
2023-05-08T12:03:45.955Z,16.78
2023-05-08T12:07:48.353Z,16.78
2023-05-08T12:11:57.805Z,16.94
2023-05-08T12:16:00.927Z,16.84
2023-05-08T12:20:19.349Z,16.61
2023-05-08T12:24:25.395Z,16.63
2023-05-08T12:28:27.899Z,16.82
2023-05-08T12:32:30.086Z,16.95
2023-05-08T12:36:38.424Z,17.10
2023-05-08T12:40:44.394Z,17.13
2023-05-08T12:44:50.965Z,17.46
2023-05-08T12:49:01.292Z,17.57
2023-05-08T12:53:09.241Z,17.58
2023-05-08T12:57:13.046Z,17.64
2023-05-08T13:01:16.421Z,17.90
2023-05-08T13:05:20.400Z,18.14
2023-05-08T13:09:25.264Z,17.96
2023-05-08T13:13:30.680Z,17.73
2023-05-08T13:17:32.728Z,17.98
2023-05-08T13:21:34.717Z,18.11
2023-05-08T13:25:37.916Z,18.01
2023-05-08T13:29:39.974Z,17.73
2023-05-08T13:33:42.146Z,17.94
2023-05-08T13:37:44.202Z,18.16
2023-05-08T13:41:46.169Z,18.02
2023-05-08T13:45:48.204Z,17.88
2023-05-08T13:49:50.319Z,18.12
2023-05-08T13:53:52.327Z,18.50
2023-05-08T13:57:54.369Z,18.62
2023-05-08T14:01:56.553Z,18.81
2023-05-08T14:05:58.665Z,19.09
2023-05-08T14:10:00.800Z,19.10
2023-05-08T14:14:02.824Z,19.13
2023-05-08T14:18:04.943Z,19.30
2023-05-08T14:22:07.060Z,19.35
2023-05-08T14:26:09.070Z,19.05
2023-05-08T14:30:11.571Z,19.16
2023-05-08T14:34:13.848Z,19.45
2023-05-08T14:38:15.850Z,19.72
2023-05-08T14:42:23.371Z,20.15
2023-05-08T14:46:26.065Z,20.37
2023-05-08T14:50:28.125Z,20.14
2023-05-08T14:54:30.357Z,19.93
2023-05-08T14:58:32.477Z,19.99
2023-05-08T15:02:34.663Z,19.99
2023-05-08T15:06:40.101Z,19.80
2023-05-08T15:10:42.118Z,19.78
2023-05-08T15:14:44.140Z,19.72
2023-05-08T15:18:46.140Z,19.65
2023-05-08T15:22:48.229Z,19.41
2023-05-08T15:26:50.407Z,19.29
2023-05-08T15:30:52.561Z,19.28
2023-05-08T15:34:54.687Z,19.21
2023-05-08T15:38:56.740Z,19.26
2023-05-08T15:42:58.783Z,19.25
2023-05-08T15:47:00.845Z,19.26
2023-05-08T15:51:03.030Z,19.28
2023-05-08T15:55:05.343Z,19.33
2023-05-08T15:59:07.385Z,19.46
2023-05-08T16:03:09.478Z,19.43
2023-05-08T16:07:11.559Z,19.25
2023-05-08T16:11:13.583Z,19.19
2023-05-08T16:15:15.689Z,19.08
2023-05-08T16:19:17.689Z,19.12
2023-05-08T16:23:19.685Z,19.16
2023-05-08T16:27:21.753Z,19.12
2023-05-08T16:31:23.772Z,19.16
2023-05-08T16:35:25.898Z,19.18
2023-05-08T16:39:28.080Z,19.13
2023-05-08T16:43:30.104Z,19.21
2023-05-08T16:47:32.816Z,19.30
2023-05-08T16:51:34.882Z,19.46
2023-05-08T16:55:36.920Z,19.38
2023-05-08T16:59:38.920Z,19.24
2023-05-08T17:03:40.943Z,19.05
2023-05-08T17:07:42.987Z,18.80
2023-05-08T17:11:44.961Z,18.65
2023-05-08T17:15:46.971Z,18.43
2023-05-08T17:19:49.030Z,18.19
2023-05-08T17:23:51.056Z,18.01
2023-05-08T17:27:53.069Z,17.91
2023-05-08T17:31:55.786Z,17.84
2023-05-08T17:35:57.794Z,17.67
2023-05-08T17:39:59.811Z,17.48
2023-05-08T17:44:01.947Z,17.29
2023-05-08T17:48:04.776Z,17.10
2023-05-08T17:52:07.312Z,17.00
2023-05-08T17:56:09.334Z,16.91
2023-05-08T18:00:12.143Z,16.85
2023-05-08T18:04:14.641Z,16.78
2023-05-08T18:08:16.677Z,16.67
2023-05-08T18:12:18.704Z,16.59
2023-05-08T18:16:22.251Z,16.55
2023-05-08T18:20:24.348Z,16.45
2023-05-08T18:24:26.342Z,16.33
2023-05-08T18:28:28.421Z,16.23
2023-05-08T18:32:30.514Z,16.15
2023-05-08T18:36:33.229Z,16.10
2023-05-08T18:40:35.241Z,15.99
2023-05-08T18:44:37.235Z,15.90
2023-05-08T18:48:40.659Z,15.76
2023-05-08T18:52:43.390Z,15.70
2023-05-08T18:56:45.455Z,15.67
2023-05-08T19:00:47.628Z,15.61
2023-05-08T19:04:49.622Z,15.55
2023-05-08T19:08:52.144Z,15.48
2023-05-08T19:12:54.298Z,15.47
2023-05-08T19:16:58.369Z,15.47
2023-05-08T19:21:01.680Z,15.47
2023-05-08T19:25:03.930Z,15.47
2023-05-08T19:29:05.956Z,15.46
2023-05-08T19:33:07.951Z,15.41
2023-05-08T19:37:09.975Z,15.36
2023-05-08T19:41:11.969Z,15.35
2023-05-08T19:45:16.114Z,15.28
2023-05-08T19:49:18.167Z,15.25
2023-05-08T19:53:20.196Z,15.22
2023-05-08T19:57:22.179Z,15.18
2023-05-08T20:01:24.231Z,15.18
2023-05-08T20:05:26.265Z,15.14
2023-05-08T20:09:28.355Z,15.08
2023-05-08T20:13:30.346Z,15.06
2023-05-08T20:17:32.473Z,15.02
2023-05-08T20:21:34.785Z,14.93
2023-05-08T20:25:36.892Z,14.92
2023-05-08T20:29:38.935Z,14.94
2023-05-08T20:33:41.010Z,15.00
2023-05-08T20:37:44.331Z,15.03
2023-05-08T20:41:46.327Z,15.00
2023-05-08T20:45:49.134Z,14.95
2023-05-08T20:49:51.299Z,14.92
2023-05-08T20:53:53.279Z,14.89
2023-05-08T20:57:55.317Z,14.88
2023-05-08T21:01:57.436Z,14.86
2023-05-08T21:05:59.411Z,14.79
2023-05-08T21:10:01.522Z,14.76
2023-05-08T21:14:03.507Z,14.70
2023-05-08T21:18:06.036Z,14.67
2023-05-08T21:22:09.276Z,14.64
2023-05-08T21:26:11.676Z,14.60
2023-05-08T21:30:16.248Z,14.59
2023-05-08T21:34:21.259Z,14.56
2023-05-08T21:38:23.280Z,14.54
2023-05-08T21:42:25.310Z,14.55
2023-05-08T21:46:27.361Z,14.54
2023-05-08T21:50:29.469Z,14.51
2023-05-08T21:54:31.499Z,14.48
2023-05-08T21:58:33.510Z,14.44
2023-05-08T22:02:36.616Z,14.38
2023-05-08T22:06:38.834Z,14.36
2023-05-08T22:10:41.106Z,14.30
2023-05-08T22:14:43.118Z,14.27
2023-05-08T22:18:45.119Z,14.26
2023-05-08T22:22:47.438Z,14.21
2023-05-08T22:26:49.563Z,14.20
2023-05-08T22:30:51.580Z,14.19
2023-05-08T22:34:55.454Z,14.18
2023-05-08T22:38:57.560Z,14.17
2023-05-08T22:43:00.048Z,14.12
2023-05-08T22:47:02.538Z,14.16
2023-05-08T22:51:04.706Z,14.13
2023-05-08T22:55:07.719Z,14.02
2023-05-08T22:59:09.719Z,13.92
2023-05-08T23:03:12.871Z,13.80
2023-05-08T23:07:14.879Z,13.73
2023-05-08T23:11:16.858Z,13.66
2023-05-08T23:15:21.087Z,13.60
2023-05-08T23:19:23.181Z,13.65
2023-05-08T23:23:25.193Z,13.70
2023-05-08T23:27:27.237Z,13.75
2023-05-08T23:31:29.280Z,13.77
2023-05-08T23:35:31.313Z,13.82
2023-05-08T23:39:40.903Z,13.81
2023-05-08T23:43:42.939Z,13.82
2023-05-08T23:47:45.661Z,13.86
2023-05-08T23:51:47.932Z,13.88
2023-05-08T23:55:53.490Z,13.89
2023-05-08T23:59:55.577Z,13.92
